createdAt,value
2023-09-29T00:02:03.546Z,19.10
2023-09-29T00:08:10.039Z,19.20
2023-09-29T00:11:23.326Z,19.10
2023-09-29T00:14:16.009Z,19.10
2023-09-29T00:17:00.588Z,19.00
2023-09-29T00:19:33.207Z,19.00
2023-09-29T00:22:13.860Z,19.00
2023-09-29T00:24:41.357Z,19.00
2023-09-29T00:27:25.486Z,19.00
2023-09-29T00:29:55.576Z,19.00
2023-09-29T00:32:59.704Z,19.00
2023-09-29T00:36:09.390Z,19.10
2023-09-29T00:41:40.352Z,19.00
2023-09-29T00:45:22.443Z,19.00
2023-09-29T00:51:52.068Z,18.90
2023-09-29T00:55:24.639Z,18.90
2023-09-29T00:58:08.064Z,18.90
2023-09-29T01:01:07.840Z,18.90
2023-09-29T01:03:35.470Z,18.80
2023-09-29T01:06:10.489Z,18.80
2023-09-29T01:11:57.090Z,18.80
2023-09-29T01:14:33.054Z,18.80
2023-09-29T01:17:04.704Z,18.80
2023-09-29T01:19:47.578Z,18.80
2023-09-29T01:22:24.262Z,18.80
2023-09-29T01:24:55.152Z,18.80
2023-09-29T01:27:24.563Z,18.80
2023-09-29T01:29:55.897Z,18.80
2023-09-29T01:32:27.016Z,18.90
2023-09-29T01:34:57.566Z,18.90
2023-09-29T01:37:33.016Z,18.90
2023-09-29T01:40:00.593Z,19.00
2023-09-29T01:42:31.041Z,18.90
2023-09-29T01:48:04.807Z,19.00
2023-09-29T01:50:39.588Z,19.00
2023-09-29T01:53:08.497Z,19.00
2023-09-29T01:55:59.247Z,19.00
2023-09-29T01:58:43.347Z,19.00
2023-09-29T02:01:11.047Z,19.00
2023-09-29T02:03:42.389Z,19.00
2023-09-29T02:06:19.794Z,19.00
2023-09-29T02:09:14.317Z,19.00
2023-09-29T02:12:29.420Z,19.00
2023-09-29T02:15:36.239Z,19.00
2023-09-29T02:18:46.012Z,19.00
2023-09-29T02:21:35.291Z,18.90
2023-09-29T02:24:17.958Z,18.90
2023-09-29T02:27:11.888Z,18.90
2023-09-29T02:33:14.472Z,18.90
2023-09-29T02:36:08.560Z,18.90
2023-09-29T02:38:48.006Z,18.80
2023-09-29T02:41:30.175Z,18.80
2023-09-29T02:44:21.648Z,18.90
2023-09-29T02:46:55.463Z,18.80
2023-09-29T02:49:29.279Z,18.90
2023-09-29T02:51:56.494Z,18.90
2023-09-29T02:54:26.977Z,18.90
2023-09-29T02:57:12.973Z,19.00
2023-09-29T02:59:58.966Z,19.00
2023-09-29T03:02:30.672Z,19.00
2023-09-29T03:05:05.292Z,19.00
2023-09-29T03:07:37.285Z,18.90
2023-09-29T03:10:27.991Z,18.90
2023-09-29T03:17:05.023Z,18.80
2023-09-29T03:20:32.626Z,18.90
2023-09-29T03:24:35.663Z,18.80
2023-09-29T03:26:47.007Z,18.80
2023-09-29T03:36:59.434Z,18.80
2023-09-29T03:40:01.012Z,18.80
2023-09-29T03:43:07.261Z,18.80
2023-09-29T03:45:45.287Z,18.80
2023-09-29T03:48:12.843Z,18.70
2023-09-29T03:50:41.296Z,18.20
2023-09-29T03:53:11.382Z,17.80
2023-09-29T03:55:39.153Z,17.50
2023-09-29T03:58:11.746Z,17.40
2023-09-29T04:00:42.562Z,17.30
2023-09-29T04:03:13.040Z,17.30
2023-09-29T04:05:40.719Z,17.20
2023-09-29T04:08:08.216Z,17.10
2023-09-29T04:10:35.419Z,17.10
2023-09-29T04:13:05.404Z,17.10
2023-09-29T04:15:52.890Z,17.10
2023-09-29T04:18:38.466Z,17.10
2023-09-29T04:29:23.929Z,17.20
2023-09-29T04:32:57.186Z,17.20
2023-09-29T04:35:47.845Z,17.20
2023-09-29T04:38:29.384Z,17.20
2023-09-29T04:41:20.214Z,17.20
2023-09-29T04:44:00.193Z,17.10
2023-09-29T04:46:30.842Z,17.00
2023-09-29T04:49:05.504Z,17.10
2023-09-29T04:51:43.636Z,17.00
2023-09-29T04:54:29.745Z,17.10
2023-09-29T04:58:21.740Z,17.00
2023-09-29T05:00:58.748Z,17.00
2023-09-29T05:06:33.404Z,17.10
2023-09-29T05:09:09.318Z,17.10
2023-09-29T05:14:37.765Z,17.10
2023-09-29T05:20:38.250Z,17.00
2023-09-29T05:30:57.519Z,17.00
2023-09-29T05:53:41.874Z,17.10
2023-09-29T05:56:43.392Z,17.00
2023-09-29T06:27:47.659Z,16.80
2023-09-29T06:34:14.852Z,16.70
2023-09-29T07:42:28.766Z,16.80
2023-09-29T08:07:06.199Z,16.80
2023-09-29T08:14:43.729Z,16.80
2023-09-29T08:19:17.827Z,16.80
2023-09-29T08:22:55.708Z,16.90
2023-09-29T08:40:20.978Z,17.40
2023-09-29T09:16:25.544Z,17.60
2023-09-29T09:19:15.293Z,17.50
2023-09-29T09:22:46.344Z,17.60
2023-09-29T09:38:43.997Z,17.60
2023-09-29T09:41:39.170Z,17.70
2023-09-29T09:51:08.913Z,17.80
2023-09-29T09:59:26.655Z,17.90
2023-09-29T10:01:57.892Z,17.80
2023-09-29T10:05:07.959Z,17.70
2023-09-29T10:08:07.550Z,17.80
2023-09-29T10:15:45.193Z,17.70
2023-09-29T10:19:16.938Z,17.80
2023-09-29T10:21:47.617Z,17.80
2023-09-29T10:25:23.534Z,17.90
2023-09-29T10:28:07.097Z,17.90
2023-09-29T10:30:41.646Z,18.00
2023-09-29T10:33:17.146Z,18.10
2023-09-29T10:35:50.462Z,18.10
2023-09-29T10:38:42.155Z,18.10
2023-09-29T10:46:34.195Z,18.00
2023-09-29T10:53:26.513Z,18.10
2023-09-29T10:56:11.645Z,18.10
2023-09-29T10:56:35.163Z,18.20
2023-09-29T10:59:57.603Z,18.20
2023-09-29T11:03:15.718Z,18.20
2023-09-29T11:06:34.527Z,18.10
2023-09-29T11:09:27.698Z,18.20
2023-09-29T11:12:09.652Z,18.20
2023-09-29T11:14:41.492Z,18.20
2023-09-29T11:20:54.917Z,18.40
2023-09-29T11:23:23.018Z,18.40
2023-09-29T11:25:53.221Z,18.50
2023-09-29T11:28:34.943Z,18.50
2023-09-29T11:31:34.245Z,18.60
2023-09-29T11:34:34.744Z,18.70
2023-09-29T11:37:07.001Z,18.70
2023-09-29T11:40:00.793Z,18.80
2023-09-29T11:45:48.975Z,18.70
2023-09-29T11:48:17.397Z,18.70
2023-09-29T11:57:10.707Z,19.10
2023-09-29T12:00:12.248Z,19.10
2023-09-29T12:02:43.351Z,19.10
2023-09-29T12:05:47.301Z,19.10
2023-09-29T12:08:38.465Z,19.20
2023-09-29T12:15:38.092Z,19.10
2023-09-29T12:21:21.035Z,19.20
2023-09-29T12:24:19.476Z,19.10
2023-09-29T12:27:16.039Z,19.00
2023-09-29T12:29:43.343Z,19.10
2023-09-29T12:32:11.013Z,19.10
2023-09-29T12:34:38.484Z,19.00
2023-09-29T12:37:05.922Z,19.10
2023-09-29T12:39:33.403Z,19.00
2023-09-29T12:42:00.570Z,19.00
2023-09-29T12:44:40.682Z,19.00
2023-09-29T12:47:13.423Z,19.00
2023-09-29T12:49:41.002Z,19.10
2023-09-29T12:52:11.780Z,19.20
2023-09-29T12:54:41.926Z,19.20
2023-09-29T12:57:13.191Z,19.20
2023-09-29T12:59:44.032Z,19.20
2023-09-29T13:02:12.670Z,19.20
2023-09-29T13:04:40.123Z,19.20
2023-09-29T13:07:11.734Z,19.20
2023-09-29T13:09:39.034Z,19.20
2023-09-29T13:12:10.740Z,19.30
2023-09-29T13:14:44.848Z,19.30
2023-09-29T13:17:13.379Z,19.30
2023-09-29T13:19:49.971Z,19.30
2023-09-29T13:26:48.986Z,19.30
2023-09-29T13:29:19.486Z,19.30
2023-09-29T13:31:56.475Z,19.30
2023-09-29T13:34:24.392Z,19.40
2023-09-29T13:36:54.216Z,19.30
2023-09-29T13:39:48.842Z,19.40
2023-09-29T13:42:16.240Z,19.40
2023-09-29T13:44:44.171Z,19.40
2023-09-29T13:47:29.109Z,19.30
2023-09-29T13:49:56.731Z,19.30
2023-09-29T13:52:35.106Z,19.30
2023-09-29T13:55:02.409Z,19.30
2023-09-29T13:57:47.809Z,19.40
2023-09-29T14:00:24.792Z,19.40
2023-09-29T14:02:59.628Z,19.30
2023-09-29T14:05:48.055Z,19.30
2023-09-29T14:08:15.970Z,19.30
2023-09-29T14:11:33.490Z,19.40
2023-09-29T14:14:35.666Z,19.50
2023-09-29T14:17:33.942Z,19.40
2023-09-29T14:20:04.372Z,19.50
2023-09-29T14:22:38.891Z,19.50
2023-09-29T14:25:10.833Z,19.50
2023-09-29T14:27:38.260Z,19.40
2023-09-29T14:30:09.521Z,19.50
2023-09-29T14:32:37.036Z,19.50
2023-09-29T14:35:16.412Z,19.50
2023-09-29T14:37:46.374Z,19.50
2023-09-29T14:40:16.961Z,19.50
2023-09-29T14:42:44.753Z,19.40
2023-09-29T14:45:37.646Z,19.30
2023-09-29T14:48:10.907Z,19.40
2023-09-29T14:50:47.950Z,19.40
2023-09-29T14:53:27.251Z,19.40
2023-09-29T14:55:58.031Z,19.40
2023-09-29T14:58:29.405Z,19.40
2023-09-29T15:00:59.910Z,19.50
2023-09-29T15:03:36.173Z,19.40
2023-09-29T15:09:35.084Z,19.40
2023-09-29T15:12:02.575Z,19.40
2023-09-29T15:14:59.701Z,19.50
2023-09-29T15:17:32.883Z,19.40
2023-09-29T15:20:37.913Z,19.40
2023-09-29T15:23:07.696Z,19.30
2023-09-29T15:25:38.480Z,19.30
2023-09-29T15:28:34.075Z,19.30
2023-09-29T15:35:20.798Z,19.30
2023-09-29T15:37:48.519Z,19.20
2023-09-29T15:40:19.202Z,19.20
2023-09-29T15:42:46.818Z,19.20
2023-09-29T15:45:14.324Z,19.20
2023-09-29T15:47:41.586Z,19.20
2023-09-29T15:50:23.412Z,19.20
2023-09-29T15:52:51.078Z,19.20
2023-09-29T15:55:19.068Z,19.10
2023-09-29T15:57:46.297Z,19.10
2023-09-29T16:00:16.713Z,19.00
2023-09-29T16:02:45.054Z,19.00
2023-09-29T16:05:15.941Z,19.00
2023-09-29T16:07:43.182Z,19.00
2023-09-29T16:10:18.729Z,19.10
2023-09-29T16:12:52.644Z,19.10
2023-09-29T16:15:20.148Z,19.20
2023-09-29T16:17:47.316Z,19.20
2023-09-29T16:20:14.532Z,19.20
2023-09-29T16:22:41.754Z,19.10
2023-09-29T16:25:09.639Z,19.10
2023-09-29T16:27:36.923Z,19.00
2023-09-29T16:30:05.982Z,18.90
2023-09-29T16:32:33.341Z,18.80
2023-09-29T16:35:01.612Z,18.80
2023-09-29T16:37:28.943Z,18.80
2023-09-29T16:39:56.515Z,18.70
2023-09-29T16:42:23.749Z,18.60
2023-09-29T16:44:52.694Z,18.60
2023-09-29T16:47:22.938Z,18.50
2023-09-29T16:49:59.388Z,18.50
2023-09-29T16:52:26.438Z,18.40
2023-09-29T16:54:53.521Z,18.30
2023-09-29T16:57:23.180Z,18.20
2023-09-29T16:59:50.568Z,18.20
2023-09-29T17:02:17.838Z,18.10
2023-09-29T17:04:45.089Z,18.00
2023-09-29T17:07:12.955Z,18.00
2023-09-29T17:09:40.958Z,17.90
2023-09-29T17:12:08.543Z,17.80
2023-09-29T17:14:35.828Z,17.70
2023-09-29T17:17:05.254Z,17.70
2023-09-29T17:19:32.422Z,17.50
2023-09-29T17:22:00.484Z,17.40
2023-09-29T17:24:28.295Z,17.30
2023-09-29T17:26:59.111Z,17.30
2023-09-29T17:29:29.111Z,17.10
2023-09-29T17:31:56.566Z,17.00
2023-09-29T17:34:23.838Z,17.00
2023-09-29T17:36:52.904Z,17.00
2023-09-29T17:39:20.098Z,17.00
2023-09-29T17:41:47.444Z,17.00
2023-09-29T17:44:15.896Z,16.90
2023-09-29T17:46:43.555Z,16.90
2023-09-29T17:49:11.257Z,16.80
2023-09-29T17:51:39.429Z,16.70
2023-09-29T17:54:07.729Z,16.70
2023-09-29T17:56:35.969Z,16.60
2023-09-29T17:59:03.983Z,16.60
2023-09-29T18:01:31.503Z,16.50
2023-09-29T18:03:59.598Z,16.40
2023-09-29T18:06:27.708Z,16.30
2023-09-29T18:08:54.988Z,16.20
2023-09-29T18:11:22.137Z,16.10
2023-09-29T18:13:49.293Z,16.00
2023-09-29T18:16:16.508Z,15.90
2023-09-29T18:18:43.710Z,15.80
2023-09-29T18:21:10.947Z,15.80
2023-09-29T18:23:38.407Z,15.70
2023-09-29T18:26:05.670Z,15.60
2023-09-29T18:28:35.978Z,15.50
2023-09-29T18:31:08.390Z,15.60
2023-09-29T18:33:36.770Z,15.60
2023-09-29T18:36:04.558Z,15.60
2023-09-29T18:38:31.952Z,15.60
2023-09-29T18:41:00.101Z,15.50
2023-09-29T18:43:27.184Z,15.40
2023-09-29T18:46:03.485Z,15.40
2023-09-29T18:48:31.181Z,15.30
2023-09-29T18:51:05.209Z,15.30
2023-09-29T18:53:32.662Z,15.20
2023-09-29T18:56:01.026Z,15.10
2023-09-29T18:58:28.548Z,15.10
2023-09-29T19:00:55.881Z,15.00
2023-09-29T19:03:26.395Z,15.00
2023-09-29T19:06:01.535Z,15.00
2023-09-29T19:08:29.070Z,15.10
2023-09-29T19:10:58.082Z,15.10
2023-09-29T19:13:25.216Z,15.10
2023-09-29T19:15:52.820Z,15.10
2023-09-29T19:18:20.100Z,15.10
2023-09-29T19:21:02.921Z,15.00
2023-09-29T19:23:30.220Z,15.00
2023-09-29T19:25:58.088Z,15.00
2023-09-29T19:28:25.139Z,15.00
2023-09-29T19:30:52.264Z,15.10
2023-09-29T19:33:19.538Z,15.10
2023-09-29T19:35:46.868Z,15.10
2023-09-29T19:38:14.128Z,15.00
2023-09-29T19:40:41.416Z,14.90
2023-09-29T19:43:08.627Z,14.90
2023-09-29T19:45:35.823Z,14.90
2023-09-29T19:48:03.994Z,14.80
2023-09-29T19:50:31.267Z,14.80
2023-09-29T19:53:02.079Z,14.70
2023-09-29T19:55:34.775Z,14.70
2023-09-29T19:58:01.985Z,14.70
2023-09-29T20:00:29.198Z,14.60
2023-09-29T20:02:56.578Z,14.60
2023-09-29T20:05:23.996Z,14.60
2023-09-29T20:07:53.709Z,14.60
2023-09-29T20:10:20.855Z,14.60
2023-09-29T20:12:48.012Z,14.60
2023-09-29T20:15:15.409Z,14.70
2023-09-29T20:17:42.636Z,14.60
2023-09-29T20:20:14.432Z,14.70
2023-09-29T20:22:41.655Z,14.70
2023-09-29T20:25:11.190Z,14.70
2023-09-29T20:27:38.941Z,14.70
2023-09-29T20:30:06.978Z,14.80
2023-09-29T20:32:34.186Z,14.80
2023-09-29T20:35:01.333Z,14.70
2023-09-29T20:37:28.854Z,14.70
2023-09-29T20:39:56.219Z,14.70
2023-09-29T20:42:23.607Z,14.70
2023-09-29T20:44:51.016Z,14.70
2023-09-29T20:47:18.732Z,14.80
2023-09-29T20:49:45.879Z,14.80
2023-09-29T20:52:13.035Z,14.80
2023-09-29T20:54:40.195Z,14.80
2023-09-29T20:57:09.139Z,14.80
2023-09-29T20:59:36.389Z,14.70
2023-09-29T21:02:03.985Z,14.70
2023-09-29T21:04:31.212Z,14.70
2023-09-29T21:06:58.427Z,14.70
2023-09-29T21:09:25.604Z,14.70
2023-09-29T21:11:53.056Z,14.70
2023-09-29T21:14:20.273Z,14.60
2023-09-29T21:16:47.346Z,14.60
2023-09-29T21:19:14.504Z,14.60
2023-09-29T21:21:41.666Z,14.60
2023-09-29T21:24:21.004Z,14.60
2023-09-29T21:26:56.513Z,14.60
2023-09-29T21:29:24.300Z,14.60
2023-09-29T21:31:53.275Z,14.60
2023-09-29T21:34:20.787Z,14.60
2023-09-29T21:36:47.902Z,14.60
2023-09-29T21:39:15.189Z,14.60
2023-09-29T21:41:43.374Z,14.50
2023-09-29T21:44:43.057Z,14.60
2023-09-29T21:47:11.291Z,14.50
2023-09-29T21:49:38.980Z,14.50
2023-09-29T21:52:06.698Z,14.40
2023-09-29T21:54:33.799Z,14.40
2023-09-29T21:57:00.885Z,14.40
2023-09-29T21:59:28.328Z,14.30
2023-09-29T22:01:55.400Z,14.30
2023-09-29T22:04:36.419Z,14.20
2023-09-29T22:07:03.743Z,14.20
2023-09-29T22:09:31.145Z,14.10
2023-09-29T22:12:02.285Z,14.10
2023-09-29T22:14:31.655Z,14.10
2023-09-29T22:16:59.617Z,14.10
2023-09-29T22:19:26.897Z,14.10
2023-09-29T22:21:54.040Z,14.10
2023-09-29T22:24:22.368Z,14.10
2023-09-29T22:26:49.788Z,14.10
2023-09-29T22:29:17.809Z,14.10
2023-09-29T22:31:45.671Z,14.00
2023-09-29T22:34:13.084Z,14.00
2023-09-29T22:36:40.290Z,14.00
2023-09-29T22:39:08.438Z,14.00
2023-09-29T22:41:35.776Z,13.90
2023-09-29T22:44:02.906Z,13.90
2023-09-29T22:46:30.263Z,13.80
2023-09-29T22:48:57.495Z,13.80
2023-09-29T22:51:25.237Z,13.70
2023-09-29T22:53:56.116Z,13.70
2023-09-29T22:56:23.489Z,13.70
2023-09-29T22:58:50.595Z,13.60
2023-09-29T23:01:17.922Z,13.60
2023-09-29T23:03:45.208Z,13.50
2023-09-29T23:06:12.751Z,13.50
2023-09-29T23:08:40.822Z,13.50
2023-09-29T23:11:09.948Z,13.40
2023-09-29T23:13:38.755Z,13.40
2023-09-29T23:16:06.073Z,13.40
2023-09-29T23:18:33.278Z,13.30
2023-09-29T23:21:00.934Z,13.40
2023-09-29T23:23:28.576Z,13.40
2023-09-29T23:25:55.665Z,13.40
2023-09-29T23:28:23.339Z,13.50
2023-09-29T23:30:51.112Z,13.50
2023-09-29T23:33:20.585Z,13.50
2023-09-29T23:35:48.094Z,13.50
2023-09-29T23:38:15.322Z,13.50
2023-09-29T23:40:42.522Z,13.50
2023-09-29T23:43:09.833Z,13.50
2023-09-29T23:45:37.161Z,13.50
2023-09-29T23:48:05.071Z,13.50
2023-09-29T23:50:33.919Z,13.50
2023-09-29T23:53:01.361Z,13.50
2023-09-29T23:55:33.255Z,13.50
2023-09-29T23:58:03.069Z,13.50
